sensor_id;sensor_type;location;lat;lon;timestamp;P1;durP1;ratioP1;P2;durP2;ratioP2
50976;SDS011;36992;48.200;12.418;2023-05-02T00:00:25;0.50;;;0.15;;
50976;SDS011;36992;48.200;12.418;2023-05-02T00:02:52;0.80;;;0.20;;
50976;SDS011;36992;48.200;12.418;2023-05-02T00:05:18;0.30;;;0.10;;
50976;SDS011;36992;48.200;12.418;2023-05-02T00:07:45;0.60;;;0.22;;
50976;SDS011;36992;48.200;12.418;2023-05-02T00:10:12;0.20;;;0.10;;
50976;SDS011;36992;48.200;12.418;2023-05-02T00:12:39;0.73;;;0.20;;
50976;SDS011;36992;48.200;12.418;2023-05-02T00:15:06;1.52;;;0.20;;
50976;SDS011;36992;48.200;12.418;2023-05-02T00:17:34;0.40;;;0.15;;
50976;SDS011;36992;48.200;12.418;2023-05-02T00:20:01;0.77;;;0.20;;
50976;SDS011;36992;48.200;12.418;2023-05-02T00:22:28;1.48;;;0.90;;
50976;SDS011;36992;48.200;12.418;2023-05-02T00:24:55;0.40;;;0.10;;
50976;SDS011;36992;48.200;12.418;2023-05-02T00:27:22;0.20;;;0.10;;
50976;SDS011;36992;48.200;12.418;2023-05-02T00:29:50;0.40;;;0.10;;
50976;SDS011;36992;48.200;12.418;2023-05-02T00:32:17;0.60;;;0.10;;
50976;SDS011;36992;48.200;12.418;2023-05-02T00:34:43;0.57;;;0.30;;
50976;SDS011;36992;48.200;12.418;2023-05-02T00:37:10;0.63;;;0.20;;
50976;SDS011;36992;48.200;12.418;2023-05-02T00:39:37;0.25;;;0.13;;
50976;SDS011;36992;48.200;12.418;2023-05-02T00:42:03;0.60;;;0.20;;
50976;SDS011;36992;48.200;12.418;2023-05-02T00:44:31;0.20;;;0.10;;
50976;SDS011;36992;48.200;12.418;2023-05-02T00:47:02;0.50;;;0.20;;
50976;SDS011;36992;48.200;12.418;2023-05-02T00:49:29;1.00;;;0.10;;
50976;SDS011;36992;48.200;12.418;2023-05-02T00:51:57;0.50;;;0.20;;
50976;SDS011;36992;48.200;12.418;2023-05-02T00:54:23;0.93;;;0.25;;
50976;SDS011;36992;48.200;12.418;2023-05-02T00:56:50;0.40;;;0.20;;
50976;SDS011;36992;48.200;12.418;2023-05-02T00:59:16;0.28;;;0.10;;
50976;SDS011;36992;48.200;12.418;2023-05-02T01:01:46;0.20;;;0.10;;
50976;SDS011;36992;48.200;12.418;2023-05-02T01:04:37;0.30;;;0.10;;
50976;SDS011;36992;48.200;12.418;2023-05-02T01:07:14;0.50;;;0.20;;
50976;SDS011;36992;48.200;12.418;2023-05-02T01:09:56;0.30;;;0.10;;
50976;SDS011;36992;48.200;12.418;2023-05-02T01:12:34;0.35;;;0.20;;
50976;SDS011;36992;48.200;12.418;2023-05-02T01:15:08;0.40;;;0.10;;
50976;SDS011;36992;48.200;12.418;2023-05-02T01:17:41;0.50;;;0.20;;
50976;SDS011;36992;48.200;12.418;2023-05-02T01:20:18;0.50;;;0.17;;
50976;SDS011;36992;48.200;12.418;2023-05-02T01:22:48;0.20;;;0.10;;
50976;SDS011;36992;48.200;12.418;2023-05-02T01:25:18;0.40;;;0.20;;
50976;SDS011;36992;48.200;12.418;2023-05-02T01:27:55;0.50;;;0.20;;
50976;SDS011;36992;48.200;12.418;2023-05-02T01:30:31;0.40;;;0.20;;
50976;SDS011;36992;48.200;12.418;2023-05-02T01:33:01;0.40;;;0.20;;
50976;SDS011;36992;48.200;12.418;2023-05-02T01:35:29;0.45;;;0.20;;
50976;SDS011;36992;48.200;12.418;2023-05-02T01:37:58;0.45;;;0.13;;
50976;SDS011;36992;48.200;12.418;2023-05-02T01:40:27;0.43;;;0.10;;
50976;SDS011;36992;48.200;12.418;2023-05-02T01:42:55;0.50;;;0.20;;
50976;SDS011;36992;48.200;12.418;2023-05-02T01:45:24;0.60;;;0.20;;
50976;SDS011;36992;48.200;12.418;2023-05-02T01:47:54;0.45;;;0.10;;
50976;SDS011;36992;48.200;12.418;2023-05-02T01:50:22;0.50;;;0.20;;
50976;SDS011;36992;48.200;12.418;2023-05-02T01:52:51;0.95;;;0.20;;
50976;SDS011;36992;48.200;12.418;2023-05-02T01:55:19;0.65;;;0.20;;
50976;SDS011;36992;48.200;12.418;2023-05-02T01:57:46;0.40;;;0.20;;
50976;SDS011;36992;48.200;12.418;2023-05-02T02:00:16;1.25;;;0.10;;
50976;SDS011;36992;48.200;12.418;2023-05-02T02:02:45;0.75;;;0.20;;
50976;SDS011;36992;48.200;12.418;2023-05-02T02:05:13;0.40;;;0.20;;
50976;SDS011;36992;48.200;12.418;2023-05-02T02:07:42;0.38;;;0.20;;
50976;SDS011;36992;48.200;12.418;2023-05-02T02:10:09;0.52;;;0.20;;
50976;SDS011;36992;48.200;12.418;2023-05-02T02:12:37;0.60;;;0.15;;
50976;SDS011;36992;48.200;12.418;2023-05-02T02:15:08;0.50;;;0.20;;
50976;SDS011;36992;48.200;12.418;2023-05-02T02:17:39;0.45;;;0.20;;
50976;SDS011;36992;48.200;12.418;2023-05-02T02:20:10;0.30;;;0.10;;
50976;SDS011;36992;48.200;12.418;2023-05-02T02:22:40;0.60;;;0.15;;
50976;SDS011;36992;48.200;12.418;2023-05-02T02:25:09;0.88;;;0.30;;
50976;SDS011;36992;48.200;12.418;2023-05-02T02:27:38;0.40;;;0.20;;
50976;SDS011;36992;48.200;12.418;2023-05-02T02:30:05;0.55;;;0.30;;
50976;SDS011;36992;48.200;12.418;2023-05-02T02:32:33;0.55;;;0.25;;
50976;SDS011;36992;48.200;12.418;2023-05-02T02:35:00;0.73;;;0.30;;
50976;SDS011;36992;48.200;12.418;2023-05-02T02:37:28;0.68;;;0.17;;
50976;SDS011;36992;48.200;12.418;2023-05-02T02:39:59;0.50;;;0.20;;
50976;SDS011;36992;48.200;12.418;2023-05-02T02:42:31;0.50;;;0.20;;
50976;SDS011;36992;48.200;12.418;2023-05-02T02:45:07;0.55;;;0.20;;
50976;SDS011;36992;48.200;12.418;2023-05-02T02:47:43;0.77;;;0.30;;
50976;SDS011;36992;48.200;12.418;2023-05-02T02:50:18;0.60;;;0.20;;
50976;SDS011;36992;48.200;12.418;2023-05-02T02:52:51;0.45;;;0.15;;
50976;SDS011;36992;48.200;12.418;2023-05-02T02:55:36;0.20;;;0.10;;
50976;SDS011;36992;48.200;12.418;2023-05-02T02:58:11;0.40;;;0.20;;
50976;SDS011;36992;48.200;12.418;2023-05-02T03:00:44;0.93;;;0.25;;
50976;SDS011;36992;48.200;12.418;2023-05-02T03:03:12;0.95;;;0.30;;
50976;SDS011;36992;48.200;12.418;2023-05-02T03:05:40;0.90;;;0.40;;
50976;SDS011;36992;48.200;12.418;2023-05-02T03:08:07;0.32;;;0.20;;
50976;SDS011;36992;48.200;12.418;2023-05-02T03:10:36;0.50;;;0.20;;
50976;SDS011;36992;48.200;12.418;2023-05-02T03:13:02;0.88;;;0.20;;
50976;SDS011;36992;48.200;12.418;2023-05-02T03:18:41;0.55;;;0.20;;
50976;SDS011;36992;48.200;12.418;2023-05-02T03:21:08;0.43;;;0.20;;
50976;SDS011;36992;48.200;12.418;2023-05-02T03:23:34;0.60;;;0.20;;
50976;SDS011;36992;48.200;12.418;2023-05-02T03:26:02;0.65;;;0.20;;
50976;SDS011;36992;48.200;12.418;2023-05-02T03:28:29;0.88;;;0.20;;
50976;SDS011;36992;48.200;12.418;2023-05-02T03:30:55;0.88;;;0.22;;
50976;SDS011;36992;48.200;12.418;2023-05-02T03:33:21;0.70;;;0.30;;
50976;SDS011;36992;48.200;12.418;2023-05-02T03:35:49;1.50;;;0.30;;
50976;SDS011;36992;48.200;12.418;2023-05-02T03:38:15;0.80;;;0.30;;
50976;SDS011;36992;48.200;12.418;2023-05-02T03:40:42;0.65;;;0.30;;
50976;SDS011;36992;48.200;12.418;2023-05-02T03:43:10;0.80;;;0.30;;
50976;SDS011;36992;48.200;12.418;2023-05-02T03:45:36;3.92;;;0.30;;
50976;SDS011;36992;48.200;12.418;2023-05-02T03:48:03;1.20;;;0.20;;
50976;SDS011;36992;48.200;12.418;2023-05-02T03:50:30;1.00;;;0.40;;
50976;SDS011;36992;48.200;12.418;2023-05-02T03:52:56;0.82;;;0.30;;
50976;SDS011;36992;48.200;12.418;2023-05-02T03:55:23;0.60;;;0.20;;
50976;SDS011;36992;48.200;12.418;2023-05-02T03:57:49;0.90;;;0.30;;
50976;SDS011;36992;48.200;12.418;2023-05-02T04:00:17;0.70;;;0.20;;
50976;SDS011;36992;48.200;12.418;2023-05-02T04:02:44;1.38;;;0.52;;
50976;SDS011;36992;48.200;12.418;2023-05-02T04:05:11;1.02;;;0.30;;
50976;SDS011;36992;48.200;12.418;2023-05-02T04:07:37;1.08;;;0.50;;
50976;SDS011;36992;48.200;12.418;2023-05-02T04:10:04;1.00;;;0.30;;
50976;SDS011;36992;48.200;12.418;2023-05-02T04:12:31;0.52;;;0.22;;
50976;SDS011;36992;48.200;12.418;2023-05-02T04:14:57;0.85;;;0.32;;
50976;SDS011;36992;48.200;12.418;2023-05-02T04:17:25;1.10;;;0.30;;
50976;SDS011;36992;48.200;12.418;2023-05-02T04:19:52;0.57;;;0.20;;
50976;SDS011;36992;48.200;12.418;2023-05-02T04:22:18;0.55;;;0.30;;
50976;SDS011;36992;48.200;12.418;2023-05-02T04:24:45;0.68;;;0.30;;
50976;SDS011;36992;48.200;12.418;2023-05-02T04:27:11;1.02;;;0.43;;
50976;SDS011;36992;48.200;12.418;2023-05-02T04:29:37;1.63;;;0.50;;
50976;SDS011;36992;48.200;12.418;2023-05-02T04:32:04;0.93;;;0.40;;
50976;SDS011;36992;48.200;12.418;2023-05-02T04:34:33;1.05;;;0.40;;
50976;SDS011;36992;48.200;12.418;2023-05-02T04:36:59;1.33;;;0.60;;
50976;SDS011;36992;48.200;12.418;2023-05-02T04:39:26;0.88;;;0.40;;
50976;SDS011;36992;48.200;12.418;2023-05-02T04:41:53;0.80;;;0.35;;
50976;SDS011;36992;48.200;12.418;2023-05-02T04:44:19;1.20;;;0.50;;
50976;SDS011;36992;48.200;12.418;2023-05-02T04:46:45;0.90;;;0.32;;
50976;SDS011;36992;48.200;12.418;2023-05-02T04:49:12;1.35;;;0.50;;
50976;SDS011;36992;48.200;12.418;2023-05-02T04:51:40;1.35;;;0.68;;
50976;SDS011;36992;48.200;12.418;2023-05-02T04:54:06;2.05;;;0.60;;
50976;SDS011;36992;48.200;12.418;2023-05-02T04:56:33;0.90;;;0.40;;
50976;SDS011;36992;48.200;12.418;2023-05-02T04:58:59;1.33;;;0.43;;
50976;SDS011;36992;48.200;12.418;2023-05-02T05:01:26;3.22;;;0.85;;
50976;SDS011;36992;48.200;12.418;2023-05-02T05:03:52;1.48;;;0.77;;
50976;SDS011;36992;48.200;12.418;2023-05-02T05:06:19;1.55;;;0.50;;
50976;SDS011;36992;48.200;12.418;2023-05-02T05:08:47;3.45;;;0.43;;
50976;SDS011;36992;48.200;12.418;2023-05-02T05:11:14;3.72;;;0.70;;
50976;SDS011;36992;48.200;12.418;2023-05-02T05:13:41;2.83;;;0.90;;
50976;SDS011;36992;48.200;12.418;2023-05-02T05:16:07;2.25;;;0.60;;
50976;SDS011;36992;48.200;12.418;2023-05-02T05:18:34;2.90;;;1.08;;
50976;SDS011;36992;48.200;12.418;2023-05-02T05:21:04;1.75;;;0.70;;
50976;SDS011;36992;48.200;12.418;2023-05-02T05:23:31;2.35;;;0.65;;
50976;SDS011;36992;48.200;12.418;2023-05-02T05:25:58;0.98;;;0.45;;
50976;SDS011;36992;48.200;12.418;2023-05-02T05:28:33;1.92;;;0.60;;
50976;SDS011;36992;48.200;12.418;2023-05-02T05:31:03;1.65;;;0.50;;
50976;SDS011;36992;48.200;12.418;2023-05-02T05:33:30;1.90;;;0.60;;
50976;SDS011;36992;48.200;12.418;2023-05-02T05:36:01;1.10;;;0.50;;
50976;SDS011;36992;48.200;12.418;2023-05-02T05:38:28;1.77;;;1.08;;
50976;SDS011;36992;48.200;12.418;2023-05-02T05:40:55;2.22;;;0.80;;
50976;SDS011;36992;48.200;12.418;2023-05-02T05:43:23;1.98;;;0.50;;
50976;SDS011;36992;48.200;12.418;2023-05-02T05:45:50;1.10;;;0.50;;
50976;SDS011;36992;48.200;12.418;2023-05-02T05:48:17;1.42;;;0.80;;
50976;SDS011;36992;48.200;12.418;2023-05-02T05:50:43;1.67;;;0.55;;
50976;SDS011;36992;48.200;12.418;2023-05-02T05:53:10;1.27;;;0.40;;
50976;SDS011;36992;48.200;12.418;2023-05-02T05:55:36;1.40;;;0.70;;
50976;SDS011;36992;48.200;12.418;2023-05-02T05:58:03;2.25;;;0.85;;
50976;SDS011;36992;48.200;12.418;2023-05-02T06:00:32;3.17;;;1.92;;
50976;SDS011;36992;48.200;12.418;2023-05-02T06:02:59;2.38;;;1.30;;
50976;SDS011;36992;48.200;12.418;2023-05-02T06:05:26;1.70;;;0.60;;
50976;SDS011;36992;48.200;12.418;2023-05-02T06:07:53;2.58;;;1.20;;
50976;SDS011;36992;48.200;12.418;2023-05-02T06:10:19;2.30;;;0.70;;
50976;SDS011;36992;48.200;12.418;2023-05-02T06:12:46;2.78;;;1.00;;
50976;SDS011;36992;48.200;12.418;2023-05-02T06:15:12;1.10;;;0.47;;
50976;SDS011;36992;48.200;12.418;2023-05-02T06:17:40;2.13;;;1.30;;
50976;SDS011;36992;48.200;12.418;2023-05-02T06:20:07;2.65;;;0.95;;
50976;SDS011;36992;48.200;12.418;2023-05-02T06:22:34;1.30;;;0.80;;
50976;SDS011;36992;48.200;12.418;2023-05-02T06:25:00;1.27;;;0.47;;
50976;SDS011;36992;48.200;12.418;2023-05-02T06:27:29;1.63;;;0.50;;
50976;SDS011;36992;48.200;12.418;2023-05-02T06:29:55;9.85;;;1.38;;
50976;SDS011;36992;48.200;12.418;2023-05-02T06:32:22;2.08;;;0.60;;
50976;SDS011;36992;48.200;12.418;2023-05-02T06:34:50;1.13;;;0.50;;
50976;SDS011;36992;48.200;12.418;2023-05-02T06:37:16;1.17;;;0.52;;
50976;SDS011;36992;48.200;12.418;2023-05-02T06:39:43;1.13;;;0.57;;
50976;SDS011;36992;48.200;12.418;2023-05-02T06:42:09;4.13;;;0.75;;
50976;SDS011;36992;48.200;12.418;2023-05-02T06:44:35;3.08;;;1.25;;
50976;SDS011;36992;48.200;12.418;2023-05-02T06:47:02;1.83;;;0.60;;
50976;SDS011;36992;48.200;12.418;2023-05-02T06:49:29;1.60;;;0.60;;
50976;SDS011;36992;48.200;12.418;2023-05-02T06:51:57;0.95;;;0.55;;
50976;SDS011;36992;48.200;12.418;2023-05-02T06:54:24;1.13;;;0.50;;
50976;SDS011;36992;48.200;12.418;2023-05-02T06:56:51;5.25;;;0.75;;
50976;SDS011;36992;48.200;12.418;2023-05-02T06:59:17;1.85;;;0.70;;
50976;SDS011;36992;48.200;12.418;2023-05-02T07:01:44;2.42;;;0.52;;
50976;SDS011;36992;48.200;12.418;2023-05-02T07:04:10;1.13;;;0.57;;
50976;SDS011;36992;48.200;12.418;2023-05-02T07:06:37;0.90;;;0.40;;
50976;SDS011;36992;48.200;12.418;2023-05-02T07:09:05;1.23;;;0.40;;
50976;SDS011;36992;48.200;12.418;2023-05-02T07:11:31;1.35;;;0.50;;
50976;SDS011;36992;48.200;12.418;2023-05-02T07:13:58;2.47;;;0.88;;
50976;SDS011;36992;48.200;12.418;2023-05-02T07:16:24;5.15;;;0.70;;
50976;SDS011;36992;48.200;12.418;2023-05-02T07:18:51;1.65;;;0.60;;
50976;SDS011;36992;48.200;12.418;2023-05-02T07:21:17;1.13;;;0.57;;
50976;SDS011;36992;48.200;12.418;2023-05-02T07:23:44;2.08;;;0.70;;
50976;SDS011;36992;48.200;12.418;2023-05-02T07:26:11;2.95;;;0.60;;
50976;SDS011;36992;48.200;12.418;2023-05-02T07:28:38;0.80;;;0.32;;
50976;SDS011;36992;48.200;12.418;2023-05-02T07:31:04;2.72;;;0.57;;
50976;SDS011;36992;48.200;12.418;2023-05-02T07:33:31;1.80;;;0.77;;
50976;SDS011;36992;48.200;12.418;2023-05-02T07:35:57;2.92;;;0.63;;
50976;SDS011;36992;48.200;12.418;2023-05-02T07:38:24;1.15;;;0.55;;
50976;SDS011;36992;48.200;12.418;2023-05-02T07:40:52;2.92;;;0.47;;
50976;SDS011;36992;48.200;12.418;2023-05-02T07:43:20;1.33;;;0.70;;
50976;SDS011;36992;48.200;12.418;2023-05-02T07:45:46;2.70;;;1.20;;
50976;SDS011;36992;48.200;12.418;2023-05-02T07:48:13;3.60;;;1.20;;
50976;SDS011;36992;48.200;12.418;2023-05-02T07:50:40;2.50;;;1.10;;
50976;SDS011;36992;48.200;12.418;2023-05-02T07:53:06;2.63;;;0.95;;
50976;SDS011;36992;48.200;12.418;2023-05-02T07:55:32;3.00;;;0.82;;
50976;SDS011;36992;48.200;12.418;2023-05-02T07:57:59;5.28;;;1.15;;
50976;SDS011;36992;48.200;12.418;2023-05-02T08:00:27;2.35;;;1.38;;
50976;SDS011;36992;48.200;12.418;2023-05-02T08:02:54;3.40;;;1.70;;
50976;SDS011;36992;48.200;12.418;2023-05-02T08:05:20;2.17;;;1.17;;
50976;SDS011;36992;48.200;12.418;2023-05-02T08:07:47;3.42;;;1.42;;
50976;SDS011;36992;48.200;12.418;2023-05-02T08:10:13;1.88;;;1.00;;
50976;SDS011;36992;48.200;12.418;2023-05-02T08:12:40;2.35;;;1.00;;
50976;SDS011;36992;48.200;12.418;2023-05-02T08:15:08;1.98;;;0.98;;
50976;SDS011;36992;48.200;12.418;2023-05-02T08:17:38;4.03;;;1.10;;
50976;SDS011;36992;48.200;12.418;2023-05-02T08:20:05;2.55;;;1.65;;
50976;SDS011;36992;48.200;12.418;2023-05-02T08:22:32;3.17;;;1.42;;
50976;SDS011;36992;48.200;12.418;2023-05-02T08:24:59;3.90;;;1.27;;
50976;SDS011;36992;48.200;12.418;2023-05-02T08:27:25;2.65;;;1.48;;
50976;SDS011;36992;48.200;12.418;2023-05-02T08:29:52;2.30;;;0.90;;
50976;SDS011;36992;48.200;12.418;2023-05-02T08:32:18;20.25;;;2.00;;
50976;SDS011;36992;48.200;12.418;2023-05-02T08:34:47;3.20;;;1.65;;
50976;SDS011;36992;48.200;12.418;2023-05-02T08:37:14;2.22;;;1.02;;
50976;SDS011;36992;48.200;12.418;2023-05-02T08:39:40;2.13;;;0.90;;
50976;SDS011;36992;48.200;12.418;2023-05-02T08:42:07;4.55;;;1.00;;
50976;SDS011;36992;48.200;12.418;2023-05-02T08:44:33;1.85;;;0.82;;
50976;SDS011;36992;48.200;12.418;2023-05-02T08:47:00;3.42;;;1.38;;
50976;SDS011;36992;48.200;12.418;2023-05-02T08:49:27;2.58;;;0.95;;
50976;SDS011;36992;48.200;12.418;2023-05-02T08:51:57;1.65;;;0.80;;
50976;SDS011;36992;48.200;12.418;2023-05-02T08:54:26;2.17;;;0.90;;
50976;SDS011;36992;48.200;12.418;2023-05-02T08:56:53;2.00;;;0.90;;
50976;SDS011;36992;48.200;12.418;2023-05-02T08:59:19;2.55;;;1.35;;
50976;SDS011;36992;48.200;12.418;2023-05-02T09:01:47;4.20;;;1.50;;
50976;SDS011;36992;48.200;12.418;2023-05-02T09:04:18;2.42;;;1.48;;
50976;SDS011;36992;48.200;12.418;2023-05-02T09:06:48;3.22;;;1.48;;
50976;SDS011;36992;48.200;12.418;2023-05-02T09:09:16;3.78;;;1.85;;
50976;SDS011;36992;48.200;12.418;2023-05-02T09:11:44;3.47;;;1.17;;
50976;SDS011;36992;48.200;12.418;2023-05-02T09:14:15;2.05;;;0.95;;
50976;SDS011;36992;48.200;12.418;2023-05-02T09:16:42;2.67;;;1.40;;
50976;SDS011;36992;48.200;12.418;2023-05-02T09:19:09;2.45;;;1.08;;
50976;SDS011;36992;48.200;12.418;2023-05-02T09:21:37;2.83;;;1.48;;
50976;SDS011;36992;48.200;12.418;2023-05-02T09:24:13;2.78;;;1.70;;
50976;SDS011;36992;48.200;12.418;2023-05-02T09:26:43;2.72;;;1.48;;
50976;SDS011;36992;48.200;12.418;2023-05-02T09:29:22;2.63;;;1.20;;
50976;SDS011;36992;48.200;12.418;2023-05-02T09:31:48;2.45;;;1.15;;
50976;SDS011;36992;48.200;12.418;2023-05-02T09:34:15;2.40;;;1.50;;
50976;SDS011;36992;48.200;12.418;2023-05-02T09:36:43;2.08;;;1.25;;
50976;SDS011;36992;48.200;12.418;2023-05-02T09:39:12;3.30;;;1.63;;
50976;SDS011;36992;48.200;12.418;2023-05-02T09:41:39;2.58;;;1.45;;
50976;SDS011;36992;48.200;12.418;2023-05-02T09:44:09;3.53;;;1.70;;
50976;SDS011;36992;48.200;12.418;2023-05-02T09:46:39;3.58;;;2.22;;
50976;SDS011;36992;48.200;12.418;2023-05-02T09:49:06;3.28;;;1.30;;
50976;SDS011;36992;48.200;12.418;2023-05-02T09:51:33;2.13;;;1.10;;
50976;SDS011;36992;48.200;12.418;2023-05-02T09:54:00;2.78;;;1.13;;
50976;SDS011;36992;48.200;12.418;2023-05-02T09:56:27;3.53;;;1.10;;
50976;SDS011;36992;48.200;12.418;2023-05-02T10:01:40;3.42;;;1.40;;
50976;SDS011;36992;48.200;12.418;2023-05-02T10:04:08;3.97;;;1.75;;
50976;SDS011;36992;48.200;12.418;2023-05-02T10:06:40;2.88;;;1.98;;
50976;SDS011;36992;48.200;12.418;2023-05-02T10:09:08;3.13;;;1.60;;
50976;SDS011;36992;48.200;12.418;2023-05-02T10:11:35;5.25;;;1.95;;
50976;SDS011;36992;48.200;12.418;2023-05-02T10:14:04;5.90;;;1.85;;
50976;SDS011;36992;48.200;12.418;2023-05-02T10:16:35;2.88;;;1.95;;
50976;SDS011;36992;48.200;12.418;2023-05-02T10:19:08;3.45;;;1.98;;
50976;SDS011;36992;48.200;12.418;2023-05-02T10:21:36;3.28;;;1.63;;
50976;SDS011;36992;48.200;12.418;2023-05-02T10:24:05;3.13;;;1.83;;
50976;SDS011;36992;48.200;12.418;2023-05-02T10:26:32;3.10;;;2.00;;
50976;SDS011;36992;48.200;12.418;2023-05-02T10:28:59;2.63;;;1.73;;
50976;SDS011;36992;48.200;12.418;2023-05-02T10:31:27;2.72;;;1.48;;
50976;SDS011;36992;48.200;12.418;2023-05-02T10:34:00;2.97;;;1.90;;
50976;SDS011;36992;48.200;12.418;2023-05-02T10:36:28;3.38;;;1.80;;
50976;SDS011;36992;48.200;12.418;2023-05-02T10:38:57;3.58;;;2.38;;
50976;SDS011;36992;48.200;12.418;2023-05-02T10:41:24;4.63;;;2.22;;
50976;SDS011;36992;48.200;12.418;2023-05-02T10:43:53;3.05;;;1.80;;
50976;SDS011;36992;48.200;12.418;2023-05-02T10:46:29;3.75;;;2.25;;
50976;SDS011;36992;48.200;12.418;2023-05-02T10:49:01;2.63;;;1.98;;
50976;SDS011;36992;48.200;12.418;2023-05-02T10:51:29;4.22;;;2.72;;
50976;SDS011;36992;48.200;12.418;2023-05-02T10:57:03;2.97;;;1.85;;
50976;SDS011;36992;48.200;12.418;2023-05-02T10:59:32;3.90;;;1.60;;
50976;SDS011;36992;48.200;12.418;2023-05-02T11:02:00;2.70;;;1.48;;
50976;SDS011;36992;48.200;12.418;2023-05-02T11:07:29;3.72;;;1.92;;
50976;SDS011;36992;48.200;12.418;2023-05-02T11:12:50;2.58;;;1.65;;
50976;SDS011;36992;48.200;12.418;2023-05-02T11:18:15;3.22;;;2.00;;
50976;SDS011;36992;48.200;12.418;2023-05-02T11:20:43;3.15;;;1.73;;
50976;SDS011;36992;48.200;12.418;2023-05-02T11:23:20;3.78;;;2.47;;
50976;SDS011;36992;48.200;12.418;2023-05-02T11:25:50;4.20;;;1.67;;
50976;SDS011;36992;48.200;12.418;2023-05-02T11:28:37;3.15;;;1.80;;
50976;SDS011;36992;48.200;12.418;2023-05-02T11:31:05;3.67;;;1.92;;
50976;SDS011;36992;48.200;12.418;2023-05-02T11:33:33;4.20;;;2.20;;
50976;SDS011;36992;48.200;12.418;2023-05-02T11:36:01;3.35;;;2.10;;
50976;SDS011;36992;48.200;12.418;2023-05-02T11:38:33;3.15;;;1.90;;
50976;SDS011;36992;48.200;12.418;2023-05-02T11:41:02;2.55;;;1.50;;
50976;SDS011;36992;48.200;12.418;2023-05-02T11:43:28;3.45;;;1.80;;
50976;SDS011;36992;48.200;12.418;2023-05-02T11:45:56;4.38;;;2.45;;
50976;SDS011;36992;48.200;12.418;2023-05-02T11:48:23;4.25;;;2.17;;
50976;SDS011;36992;48.200;12.418;2023-05-02T11:50:52;3.47;;;2.00;;
50976;SDS011;36992;48.200;12.418;2023-05-02T11:53:22;4.07;;;2.50;;
50976;SDS011;36992;48.200;12.418;2023-05-02T11:55:50;4.25;;;1.42;;
50976;SDS011;36992;48.200;12.418;2023-05-02T11:58:18;3.45;;;1.70;;
50976;SDS011;36992;48.200;12.418;2023-05-02T12:00:46;2.03;;;1.27;;
50976;SDS011;36992;48.200;12.418;2023-05-02T12:03:22;3.50;;;1.80;;
50976;SDS011;36992;48.200;12.418;2023-05-02T12:05:51;2.03;;;1.20;;
50976;SDS011;36992;48.200;12.418;2023-05-02T12:08:18;3.88;;;1.40;;
50976;SDS011;36992;48.200;12.418;2023-05-02T12:10:48;2.75;;;1.33;;
50976;SDS011;36992;48.200;12.418;2023-05-02T12:13:15;1.67;;;1.05;;
50976;SDS011;36992;48.200;12.418;2023-05-02T12:15:42;2.53;;;1.27;;
50976;SDS011;36992;48.200;12.418;2023-05-02T12:18:08;2.22;;;1.15;;
50976;SDS011;36992;48.200;12.418;2023-05-02T12:20:35;3.17;;;1.10;;
50976;SDS011;36992;48.200;12.418;2023-05-02T12:23:03;2.10;;;1.30;;
50976;SDS011;36992;48.200;12.418;2023-05-02T12:25:32;2.22;;;1.17;;
50976;SDS011;36992;48.200;12.418;2023-05-02T12:28:04;3.50;;;1.10;;
50976;SDS011;36992;48.200;12.418;2023-05-02T12:30:31;3.00;;;0.88;;
50976;SDS011;36992;48.200;12.418;2023-05-02T12:32:58;2.10;;;0.77;;
50976;SDS011;36992;48.200;12.418;2023-05-02T12:35:26;2.10;;;0.88;;
50976;SDS011;36992;48.200;12.418;2023-05-02T12:37:54;2.10;;;1.10;;
50976;SDS011;36992;48.200;12.418;2023-05-02T12:40:32;1.77;;;1.10;;
50976;SDS011;36992;48.200;12.418;2023-05-02T12:42:59;2.03;;;0.70;;
50976;SDS011;36992;48.200;12.418;2023-05-02T12:45:29;2.03;;;0.98;;
50976;SDS011;36992;48.200;12.418;2023-05-02T12:47:58;1.88;;;0.70;;
50976;SDS011;36992;48.200;12.418;2023-05-02T12:50:34;1.08;;;0.50;;
50976;SDS011;36992;48.200;12.418;2023-05-02T12:53:01;1.30;;;0.60;;
50976;SDS011;36992;48.200;12.418;2023-05-02T12:55:28;1.65;;;0.47;;
50976;SDS011;36992;48.200;12.418;2023-05-02T12:57:58;2.65;;;0.40;;
50976;SDS011;36992;48.200;12.418;2023-05-02T13:00:26;4.53;;;0.60;;
50976;SDS011;36992;48.200;12.418;2023-05-02T13:02:53;1.33;;;0.52;;
50976;SDS011;36992;48.200;12.418;2023-05-02T13:05:20;2.53;;;0.45;;
50976;SDS011;36992;48.200;12.418;2023-05-02T13:07:47;2.65;;;0.60;;
50976;SDS011;36992;48.200;12.418;2023-05-02T13:10:13;3.22;;;0.70;;
50976;SDS011;36992;48.200;12.418;2023-05-02T13:12:42;1.88;;;0.70;;
50976;SDS011;36992;48.200;12.418;2023-05-02T13:15:08;2.08;;;0.68;;
50976;SDS011;36992;48.200;12.418;2023-05-02T13:17:35;2.28;;;1.10;;
50976;SDS011;36992;48.200;12.418;2023-05-02T13:20:03;2.55;;;1.00;;
50976;SDS011;36992;48.200;12.418;2023-05-02T13:22:30;1.98;;;0.73;;
50976;SDS011;36992;48.200;12.418;2023-05-02T13:24:57;2.20;;;1.00;;
50976;SDS011;36992;48.200;12.418;2023-05-02T13:27:23;1.10;;;0.60;;
50976;SDS011;36992;48.200;12.418;2023-05-02T13:29:50;3.78;;;0.82;;
50976;SDS011;36992;48.200;12.418;2023-05-02T13:32:17;1.35;;;0.52;;
50976;SDS011;36992;48.200;12.418;2023-05-02T13:34:44;1.35;;;0.68;;
50976;SDS011;36992;48.200;12.418;2023-05-02T13:37:12;2.28;;;0.90;;
50976;SDS011;36992;48.200;12.418;2023-05-02T13:39:38;3.63;;;0.50;;
50976;SDS011;36992;48.200;12.418;2023-05-02T13:42:05;1.10;;;0.40;;
50976;SDS011;36992;48.200;12.418;2023-05-02T13:44:32;3.67;;;0.60;;
50976;SDS011;36992;48.200;12.418;2023-05-02T13:46:58;1.90;;;0.75;;
50976;SDS011;36992;48.200;12.418;2023-05-02T13:49:25;1.35;;;0.65;;
50976;SDS011;36992;48.200;12.418;2023-05-02T13:51:52;1.00;;;0.50;;
50976;SDS011;36992;48.200;12.418;2023-05-02T13:54:20;1.75;;;0.80;;
50976;SDS011;36992;48.200;12.418;2023-05-02T13:56:46;1.75;;;0.77;;
50976;SDS011;36992;48.200;12.418;2023-05-02T13:59:13;1.88;;;0.63;;
50976;SDS011;36992;48.200;12.418;2023-05-02T14:01:39;2.10;;;0.70;;
50976;SDS011;36992;48.200;12.418;2023-05-02T14:04:05;2.05;;;0.70;;
50976;SDS011;36992;48.200;12.418;2023-05-02T14:06:32;1.60;;;0.63;;
50976;SDS011;36992;48.200;12.418;2023-05-02T14:08:59;2.00;;;0.50;;
50976;SDS011;36992;48.200;12.418;2023-05-02T14:11:27;1.48;;;0.70;;
50976;SDS011;36992;48.200;12.418;2023-05-02T14:13:53;1.13;;;0.45;;
50976;SDS011;36992;48.200;12.418;2023-05-02T14:16:22;1.77;;;0.80;;
50976;SDS011;36992;48.200;12.418;2023-05-02T14:18:49;1.65;;;0.82;;
50976;SDS011;36992;48.200;12.418;2023-05-02T14:21:15;2.33;;;0.90;;
50976;SDS011;36992;48.200;12.418;2023-05-02T14:23:42;1.70;;;0.80;;
50976;SDS011;36992;48.200;12.418;2023-05-02T14:26:08;1.70;;;0.50;;
50976;SDS011;36992;48.200;12.418;2023-05-02T14:28:36;1.63;;;0.50;;
50976;SDS011;36992;48.200;12.418;2023-05-02T14:31:03;1.27;;;0.47;;
50976;SDS011;36992;48.200;12.418;2023-05-02T14:33:30;1.73;;;0.85;;
50976;SDS011;36992;48.200;12.418;2023-05-02T14:35:56;1.73;;;0.50;;
50976;SDS011;36992;48.200;12.418;2023-05-02T14:38:23;1.27;;;0.40;;
50976;SDS011;36992;48.200;12.418;2023-05-02T14:40:49;0.85;;;0.40;;
50976;SDS011;36992;48.200;12.418;2023-05-02T14:43:15;1.23;;;0.60;;
50976;SDS011;36992;48.200;12.418;2023-05-02T14:45:43;1.83;;;0.40;;
50976;SDS011;36992;48.200;12.418;2023-05-02T14:48:10;0.93;;;0.40;;
50976;SDS011;36992;48.200;12.418;2023-05-02T14:50:38;1.95;;;0.60;;
50976;SDS011;36992;48.200;12.418;2023-05-02T14:53:05;1.35;;;0.63;;
50976;SDS011;36992;48.200;12.418;2023-05-02T14:55:34;1.48;;;0.93;;